CLEVELAND ARTCC (ZOB) FACILITY RUNWAY SELECTOR
METARS UPDATED AT 0251Z

Page auto refreshed every 5 minutes
FACILITYWINDVISIBILITY
CEILING
RUNWAY FLOWAPPROACHMETAR
KAGC190@0610SM
OVC060
West Flow
DEP: 28, 31 (GA)
ARR: 28, 31 (GA)
Visual ApproachKAGC 230153Z 19006KT 10SM OVC060 11/01 A3007 RMK AO2 SLP194 T01060006
KBKL180@0410SM
----
Calm Wind Flow
DEP: 24L (GA) 24R
ARR: 24L (GA), 24R
Visual ApproachKBKL 230153Z 18004KT 10SM CLR 11/03 A3002 RMK AO2 SLP168 T01060033
KBUF170@0610SM
----
14 Flow
DEP: 14
ARR: 14
Visual ApproachKBUF 230154Z 17006KT 10SM FEW045 FEW230 06/03 A3004 RMK AO2 SLP178 T00560028
KCAK220@0610SM
----
South Flow
DEP: 19
ARR: 23
Visual ApproachKCAK 230151Z 22006KT 10SM SCT065 10/02 A3004 RMK AO2 SLP178 T01000022
KCGFCalm20SM
----
Calm Wind Flow
DEP: 6
ARR: 6
Visual ApproachKCGF 230145Z 00000KT 20SM FEW060 05/04 A3003
KCLECalm10SM
----
Calm Wind Flow
DEP: 6R
ARR: 6L
Visual ApproachKCLE 230151Z 00000KT 10SM FEW060 08/05 A3005 RMK AO2 SLP181 T00830050
KDTW200@0410SM
----
Calm Wind Flow
DEP: 21R, 22L
ARR: 21L, 22R
Visual ApproachKDTW 230153Z 20004KT 10SM CLR 07/02 A3001 RMK AO2 SLP167 T00720017
KERI190@0410SM
OVC065
Calm Wind Flow
DEP: 6
ARR: 6
Visual ApproachKERI 230151Z 19004KT 10SM OVC065 08/03 A3003 RMK AO2 SLP173 T00780028 $
KFNT240@0610SM
----
27 Flow
DEP: 27
ARR: 27
Visual ApproachKFNT 230153Z 24006KT 10SM CLR 06/01 A3000 RMK AO2 SLP166 T00560011
KIAG190@0310SM
----
Calm Wind Flow
DEP: 28R, 28L (GA)
ARR: 28R, 28L (GA)
Visual ApproachKIAG 230153Z 19003KT 10SM CLR 04/02 A3003 RMK AO2 SLP180 T00440017
KJST240@0810SM
OVC060
23 Flow
DEP: 23
ARR: 23
Visual ApproachKJST 230154Z 24008KT 10SM OVC060 09/M02 A3007 RMK AO2 SLP196 T00891017
KLAN240@0510SM
----
27 Flow
DEP: 27
ARR: 27
Visual ApproachKLAN 230153Z 24005KT 10SM CLR 07/03 A3001 RMK AO2 SLP168 T00720033
KPIT180@0310SM
OVC060
Calm Wind Flow
DEP: 28R, 28C
ARR: 28R, 28L, 32 (GA)
Visual ApproachKPIT 230151Z 18003KT 10SM OVC060 10/01 A3007 RMK AO2 SLP194 T01000011
KROCCalm10SM
BKN070
Calm Wind Flow
DEP: 22
ARR: 22
Visual ApproachKROC 230154Z 00000KT 10SM BKN070 OVC100 07/05 A3006 RMK AO2 SLP185 T00670050
KTOL230@0310SM
----
Calm Wind Flow
DEP: 7
ARR: 7
Visual ApproachKTOL 230152Z 23003KT 10SM CLR 06/03 A3003 RMK AO2 SLP173 T00610028 $
KYNG170@0510SM
OVC060
14 Flow
DEP: 14
ARR: 14
Visual ApproachKYNG 230151Z 17005KT 10SM OVC060 09/03 A3003 RMK AO2 SLP175 BINOVC T00940028
NOTE: Runway selection based on current VATSIM metar and ZOB SOPs.
Ceiling = Lowest reported ceiling.
GA = General Aviation aircraft only.
METAR Decode Key